Hibbing, Minnesota
Current Conditions -  °F | °C
As of 12:53 PM on Thursday 30 Oct 2014 (Local Time) from KHIB Reporting Station
Overcast Overcast  
Wind Chill: 32°   Ceiling: 1700
Heat Index: 40°   Visibility: 10mi
Dew Point: 32°   Wind: 14mph
Humidity: 73%   Direction: 320°NW
Pressure: 30.11"   Gusts: NA
Location:  47.42°N, 92.94°W
Report Text: KHIB 301753Z AUTO 32012KT 10SM OVC017 04/00 A3011 RMK AO2 SLP211 T00440000 10044 20022 53004
Loading
Personal Weather Stations






























Interactive Weather Map
Tropical Storm Tracking
New forecast layout! Learn more

10-Day Weather Forecast

Advertisements
Track Severe Weather on mobile